createdAt,value
2018-04-28T00:00:26.415Z,13.50
2018-04-28T00:02:54.178Z,13.40
2018-04-28T00:05:22.638Z,13.20
2018-04-28T00:07:50.354Z,13.30
2018-04-28T00:10:18.052Z,13.20
2018-04-28T00:12:47.239Z,13.20
2018-04-28T00:15:14.893Z,13.10
2018-04-28T00:17:42.530Z,13.10
2018-04-28T00:20:20.105Z,13.00
2018-04-28T00:22:55.103Z,13.00
2018-04-28T00:25:22.816Z,12.90
2018-04-28T00:28:06.213Z,12.90
2018-04-28T00:30:39.460Z,12.80
2018-04-28T00:33:19.038Z,12.80
2018-04-28T00:35:46.729Z,12.80
2018-04-28T00:38:15.183Z,12.80
2018-04-28T00:40:46.469Z,12.80
2018-04-28T00:43:15.830Z,12.80
2018-04-28T00:46:06.070Z,12.70
2018-04-28T00:48:56.336Z,12.70
2018-04-28T00:51:30.806Z,12.80
2018-04-28T01:00:26.008Z,12.90
2018-04-28T01:02:56.068Z,13.00
2018-04-28T01:05:29.160Z,13.00
2018-04-28T01:07:56.791Z,13.10
2018-04-28T01:10:31.791Z,13.10
2018-04-28T01:12:59.483Z,13.10
2018-04-28T01:15:32.720Z,13.20
2018-04-28T01:18:01.154Z,13.30
2018-04-28T01:20:30.757Z,13.30
2018-04-28T01:26:21.545Z,13.40
2018-04-28T01:28:50.033Z,13.40
2018-04-28T01:31:24.081Z,13.40
2018-04-28T01:37:12.519Z,13.40
2018-04-28T01:39:40.148Z,13.40
2018-04-28T01:45:08.196Z,13.50
2018-04-28T01:50:39.892Z,13.40
2018-04-28T01:53:07.491Z,13.40
2018-04-28T01:55:35.878Z,13.30
2018-04-28T01:58:07.144Z,13.30
2018-04-28T02:00:43.422Z,13.30
2018-04-28T02:06:48.727Z,13.20
2018-04-28T02:09:20.784Z,13.20
2018-04-28T02:15:07.688Z,13.10
2018-04-28T02:17:43.804Z,13.10
2018-04-28T02:23:20.920Z,13.10
2018-04-28T02:25:49.705Z,13.00
2018-04-28T02:28:26.122Z,13.00
2018-04-28T02:33:54.916Z,12.90
2018-04-28T02:36:23.413Z,12.90
2018-04-28T02:38:53.714Z,12.80
2018-04-28T02:41:25.225Z,12.80
2018-04-28T02:43:56.529Z,12.80
2018-04-28T02:46:29.841Z,12.70
2018-04-28T02:52:05.570Z,12.60
2018-04-28T02:54:48.789Z,12.60
2018-04-28T03:00:32.857Z,12.50
2018-04-28T03:03:06.189Z,12.50
2018-04-28T03:05:33.862Z,12.50
2018-04-28T03:08:06.058Z,12.50
2018-04-28T03:10:37.166Z,12.50
2018-04-28T03:13:10.594Z,12.40
2018-04-28T03:15:38.313Z,12.40
2018-04-28T03:18:06.012Z,12.40
2018-04-28T03:20:34.448Z,12.30
2018-04-28T03:23:05.766Z,12.20
2018-04-28T03:25:43.357Z,12.20
2018-04-28T03:28:23.583Z,12.20
2018-04-28T03:31:02.741Z,12.20
2018-04-28T03:33:37.101Z,12.20
2018-04-28T03:36:07.272Z,12.10
2018-04-28T03:38:40.920Z,12.10
2018-04-28T03:41:26.792Z,12.10
2018-04-28T03:47:17.181Z,12.00
2018-04-28T03:49:45.135Z,12.00
2018-04-28T03:52:19.500Z,11.90
2018-04-28T03:55:02.849Z,11.90
2018-04-28T03:57:42.328Z,11.90
2018-04-28T04:00:21.732Z,11.80
2018-04-28T04:03:01.056Z,11.80
2018-04-28T04:05:46.013Z,11.80
2018-04-28T04:08:15.508Z,11.80
2018-04-28T04:14:14.340Z,11.70
2018-04-28T04:16:45.767Z,11.70
2018-04-28T04:19:19.021Z,11.70
2018-04-28T04:21:56.382Z,11.60
2018-04-28T04:24:29.726Z,11.60
2018-04-28T04:27:00.014Z,11.50
2018-04-28T04:29:39.402Z,11.50
2018-04-28T04:32:13.854Z,11.50
2018-04-28T04:34:59.277Z,11.50
2018-04-28T04:37:33.161Z,11.50
2018-04-28T04:43:26.133Z,11.50
2018-04-28T04:46:05.703Z,11.50
2018-04-28T04:48:50.800Z,11.60
2018-04-28T04:51:26.125Z,11.50
2018-04-28T04:54:12.868Z,11.60
2018-04-28T05:08:34.919Z,11.80
2018-04-28T05:11:15.083Z,11.90
2018-04-28T05:13:49.410Z,11.90
2018-04-28T05:16:22.829Z,12.00
2018-04-28T05:19:02.359Z,12.10
2018-04-28T05:21:53.572Z,12.30
2018-04-28T05:24:29.037Z,12.20
2018-04-28T05:26:58.600Z,12.30
2018-04-28T05:29:39.769Z,12.50
2018-04-28T05:32:29.204Z,12.40
2018-04-28T05:35:09.534Z,12.60
2018-04-28T05:37:46.668Z,12.60
2018-04-28T05:40:21.712Z,12.60
2018-04-28T05:42:56.032Z,12.70
2018-04-28T05:45:36.205Z,12.80
2018-04-28T05:48:43.184Z,12.70
2018-04-28T05:51:31.516Z,12.80
2018-04-28T05:54:25.691Z,12.90
2018-04-28T05:57:03.057Z,12.80
2018-04-28T05:59:42.452Z,12.90
2018-04-28T06:02:19.806Z,12.90
2018-04-28T06:04:59.373Z,12.90
2018-04-28T06:07:38.664Z,12.90
2018-04-28T06:13:19.897Z,13.00
2018-04-28T06:16:09.025Z,13.10
2018-04-28T06:18:52.676Z,13.10
2018-04-28T06:21:21.113Z,13.20
2018-04-28T06:23:49.501Z,13.30
2018-04-28T06:26:17.267Z,13.20
2018-04-28T06:28:44.937Z,13.30
2018-04-28T06:34:16.290Z,13.50
2018-04-28T06:36:43.993Z,13.50
2018-04-28T06:39:11.657Z,13.50
2018-04-28T06:41:45.691Z,13.60
2018-04-28T06:44:13.897Z,13.70
2018-04-28T06:46:42.442Z,13.90
2018-04-28T06:49:10.901Z,14.00
2018-04-28T06:51:38.568Z,14.00
2018-04-28T06:54:06.269Z,14.00
2018-04-28T06:56:33.950Z,14.10
2018-04-28T06:59:01.654Z,14.20
2018-04-28T07:01:29.366Z,14.30
2018-04-28T07:03:57.066Z,14.30
2018-04-28T07:06:24.752Z,14.40
2018-04-28T07:08:52.418Z,14.50
2018-04-28T07:11:20.292Z,14.60
2018-04-28T07:13:47.972Z,14.70
2018-04-28T07:16:15.661Z,14.80
2018-04-28T07:18:43.321Z,14.90
2018-04-28T07:21:11.089Z,15.00
2018-04-28T07:23:38.858Z,15.10
2018-04-28T07:26:06.683Z,15.20
2018-04-28T07:37:19.562Z,15.70
2018-04-28T07:39:47.263Z,15.80
2018-04-28T07:42:15.695Z,15.90
2018-04-28T07:44:43.403Z,15.90
2018-04-28T07:47:11.080Z,16.00
2018-04-28T07:49:38.850Z,15.90
2018-04-28T07:52:07.261Z,16.00
2018-04-28T07:54:34.959Z,16.00
2018-04-28T07:57:02.670Z,16.10
2018-04-28T07:59:30.317Z,16.10
2018-04-28T08:01:58.775Z,16.30
2018-04-28T08:04:26.457Z,16.30
2018-04-28T08:06:54.239Z,16.30
2018-04-28T08:09:21.866Z,16.40
2018-04-28T08:11:49.557Z,16.50
2018-04-28T08:14:17.255Z,16.60
2018-04-28T08:16:44.903Z,16.70
2018-04-28T08:19:12.630Z,16.80
2018-04-28T08:21:40.394Z,17.00
2018-04-28T08:24:08.139Z,17.20
2018-04-28T08:26:35.813Z,17.40
2018-04-28T08:29:04.285Z,17.70
2018-04-28T08:31:32.002Z,17.70
2018-04-28T08:34:00.441Z,17.70
2018-04-28T08:36:28.169Z,17.70
2018-04-28T08:39:00.642Z,17.70
2018-04-28T08:41:28.360Z,17.50
2018-04-28T08:43:57.073Z,17.50
2018-04-28T08:46:24.777Z,17.40
2018-04-28T08:48:52.420Z,17.30
2018-04-28T08:51:20.075Z,17.20
2018-04-28T08:53:48.530Z,17.20
2018-04-28T08:56:16.200Z,17.20
2018-04-28T08:58:43.938Z,17.20
2018-04-28T09:01:11.553Z,17.20
2018-04-28T09:03:40.012Z,17.30
2018-04-28T09:06:07.661Z,17.20
2018-04-28T09:08:35.388Z,17.20
2018-04-28T09:11:03.018Z,17.30
2018-04-28T09:13:30.706Z,17.30
2018-04-28T09:15:58.301Z,17.30
2018-04-28T09:18:25.921Z,17.30
2018-04-28T09:20:54.017Z,17.40
2018-04-28T09:23:21.673Z,17.40
2018-04-28T09:25:50.102Z,17.50
2018-04-28T09:28:17.735Z,17.50
2018-04-28T09:30:45.393Z,17.50
2018-04-28T09:33:13.016Z,17.60
2018-04-28T09:35:40.669Z,17.50
2018-04-28T09:38:08.296Z,17.40
2018-04-28T09:40:36.017Z,17.40
2018-04-28T09:43:04.431Z,17.30
2018-04-28T09:48:43.440Z,17.20
2018-04-28T09:51:11.105Z,17.10
2018-04-28T09:53:39.238Z,17.10
2018-04-28T09:56:06.937Z,17.10
2018-04-28T09:58:35.371Z,17.00
2018-04-28T10:01:03.041Z,17.00
2018-04-28T10:03:31.205Z,17.00
2018-04-28T10:05:58.883Z,17.10
2018-04-28T10:08:26.521Z,17.10
2018-04-28T10:10:54.926Z,17.10
2018-04-28T10:13:23.361Z,17.20
2018-04-28T10:15:51.093Z,17.20
2018-04-28T10:18:18.718Z,17.20
2018-04-28T10:20:46.367Z,17.30
2018-04-28T10:23:14.008Z,17.40
2018-04-28T10:25:41.693Z,17.40
2018-04-28T10:28:10.291Z,17.50
2018-04-28T10:30:37.935Z,17.60
2018-04-28T10:33:05.603Z,17.60
2018-04-28T10:35:33.264Z,17.70
2018-04-28T10:38:01.670Z,17.80
2018-04-28T10:40:29.305Z,17.80
2018-04-28T10:42:56.983Z,18.00
2018-04-28T10:45:24.588Z,18.20
2018-04-28T10:47:52.257Z,18.40
2018-04-28T10:50:19.953Z,18.50
2018-04-28T10:52:48.378Z,18.80
2018-04-28T10:55:15.999Z,18.80
2018-04-28T10:57:43.659Z,19.00
2018-04-28T11:00:11.398Z,19.20
2018-04-28T11:02:41.117Z,19.30
2018-04-28T11:05:09.562Z,19.30
2018-04-28T11:07:37.213Z,19.30
2018-04-28T11:10:04.879Z,19.40
2018-04-28T11:12:32.472Z,19.50
2018-04-28T11:15:00.124Z,19.60
2018-04-28T11:20:24.973Z,19.50
2018-04-28T11:22:52.600Z,19.50
2018-04-28T11:25:20.557Z,19.50
2018-04-28T11:27:48.170Z,19.50
2018-04-28T11:30:15.831Z,19.40
2018-04-28T11:32:43.469Z,19.40
2018-04-28T11:35:11.120Z,19.40
2018-04-28T11:37:38.758Z,19.40
2018-04-28T11:40:06.402Z,19.50
2018-04-28T11:42:34.098Z,19.70
2018-04-28T11:45:01.771Z,19.90
2018-04-28T11:47:29.407Z,20.00
2018-04-28T11:49:57.087Z,20.20
2018-04-28T11:52:24.860Z,20.30
2018-04-28T11:54:53.418Z,20.60
2018-04-28T11:57:21.038Z,20.60
2018-04-28T11:59:49.461Z,20.70
2018-04-28T12:02:17.101Z,20.70
2018-04-28T12:04:44.725Z,20.80
2018-04-28T12:07:13.147Z,21.10
2018-04-28T12:09:41.555Z,21.30
2018-04-28T12:12:09.983Z,21.40
2018-04-28T12:14:37.606Z,21.40
2018-04-28T12:17:05.318Z,21.60
2018-04-28T12:19:33.774Z,21.80
2018-04-28T12:22:01.430Z,21.70
2018-04-28T12:24:29.127Z,21.90
2018-04-28T12:26:57.554Z,22.10
2018-04-28T12:29:25.218Z,22.10
2018-04-28T12:31:53.635Z,22.50
2018-04-28T12:34:22.596Z,22.50
2018-04-28T12:36:50.249Z,22.60
2018-04-28T12:39:17.870Z,22.70
2018-04-28T12:41:45.547Z,22.80
2018-04-28T12:44:13.186Z,23.00
2018-04-28T12:46:41.798Z,23.30
2018-04-28T12:49:09.445Z,23.30
2018-04-28T12:51:37.105Z,23.40
2018-04-28T12:54:04.736Z,23.50
2018-04-28T12:56:32.402Z,23.60
2018-04-28T12:59:00.090Z,23.70
2018-04-28T13:01:27.968Z,23.60
2018-04-28T13:03:55.949Z,23.50
2018-04-28T13:06:23.605Z,23.30
2018-04-28T13:08:51.260Z,23.10
2018-04-28T13:11:18.899Z,23.00
2018-04-28T13:13:47.370Z,22.60
2018-04-28T13:16:15.002Z,22.60
2018-04-28T13:18:42.714Z,22.40
2018-04-28T13:21:10.362Z,22.30
2018-04-28T13:23:38.789Z,21.90
2018-04-28T13:26:06.454Z,21.90
2018-04-28T13:28:34.951Z,21.70
2018-04-28T13:31:02.606Z,21.70
2018-04-28T13:33:30.261Z,21.70
2018-04-28T13:35:57.915Z,21.60
2018-04-28T13:38:25.784Z,21.60
2018-04-28T13:40:53.444Z,21.60
2018-04-28T13:43:21.085Z,21.50
2018-04-28T13:45:49.512Z,21.60
2018-04-28T13:48:17.974Z,21.90
2018-04-28T13:50:45.565Z,21.80
2018-04-28T13:53:13.214Z,22.00
2018-04-28T13:55:40.861Z,22.10
2018-04-28T13:58:08.494Z,22.10
2018-04-28T14:00:36.187Z,22.20
2018-04-28T14:08:54.738Z,22.30
2018-04-28T14:11:22.439Z,22.30
2018-04-28T14:13:50.054Z,22.30
2018-04-28T14:16:17.698Z,22.10
2018-04-28T14:18:45.343Z,22.00
2018-04-28T14:21:12.982Z,21.80
2018-04-28T14:23:40.663Z,21.60
2018-04-28T14:26:08.319Z,21.50
2018-04-28T14:28:35.978Z,21.30
2018-04-28T14:31:04.910Z,21.30
2018-04-28T14:33:33.340Z,21.30
2018-04-28T14:36:00.981Z,21.20
2018-04-28T14:38:28.645Z,21.30
2018-04-28T14:40:56.317Z,21.20
2018-04-28T14:43:24.073Z,21.10
2018-04-28T14:45:51.826Z,21.00
2018-04-28T14:48:20.811Z,21.00
2018-04-28T14:50:48.829Z,21.00
2018-04-28T14:53:16.453Z,21.10
2018-04-28T14:55:44.874Z,21.10
2018-04-28T14:58:12.520Z,21.10
2018-04-28T15:00:40.154Z,21.10
2018-04-28T15:03:07.825Z,21.10
2018-04-28T15:05:36.509Z,21.10
2018-04-28T15:08:04.249Z,21.10
2018-04-28T15:10:31.881Z,21.20
2018-04-28T15:12:59.562Z,21.20
2018-04-28T15:15:27.231Z,21.30
2018-04-28T15:17:54.917Z,21.30
2018-04-28T15:20:22.540Z,21.30
2018-04-28T15:22:50.237Z,21.30
2018-04-28T15:25:17.974Z,21.30
2018-04-28T15:27:45.663Z,21.20
2018-04-28T15:30:13.422Z,21.20
2018-04-28T15:32:42.004Z,21.10
2018-04-28T15:35:09.946Z,21.10
2018-04-28T15:37:37.569Z,21.10
2018-04-28T15:40:05.218Z,21.10
2018-04-28T15:42:32.878Z,21.10
2018-04-28T15:45:01.277Z,21.00
2018-04-28T15:47:51.438Z,21.00
2018-04-28T15:50:19.191Z,21.00
2018-04-28T15:52:48.340Z,20.90
2018-04-28T15:55:17.206Z,20.90
2018-04-28T15:57:45.309Z,20.90
2018-04-28T16:00:13.103Z,20.80
2018-04-28T16:02:40.824Z,20.80
2018-04-28T16:05:08.556Z,20.80
2018-04-28T16:07:40.500Z,20.70
2018-04-28T16:10:08.174Z,20.70
2018-04-28T16:12:35.977Z,20.70
2018-04-28T16:15:04.081Z,20.60
2018-04-28T16:17:32.613Z,20.50
2018-04-28T16:20:00.349Z,20.50
2018-04-28T16:22:28.198Z,20.40
2018-04-28T16:24:56.034Z,20.40
2018-04-28T16:27:23.817Z,20.30
2018-04-28T16:29:51.942Z,20.20
2018-04-28T16:32:20.846Z,20.10
2018-04-28T16:34:48.582Z,20.10
2018-04-28T16:37:16.386Z,20.10
2018-04-28T16:39:44.334Z,20.00
2018-04-28T16:42:12.121Z,20.00
2018-04-28T16:44:39.874Z,19.90
2018-04-28T16:47:07.611Z,19.80
2018-04-28T16:49:35.380Z,19.80
2018-04-28T16:52:03.210Z,19.80
2018-04-28T16:54:31.869Z,19.70
2018-04-28T16:56:59.700Z,19.70
2018-04-28T16:59:27.483Z,19.60
2018-04-28T17:01:55.154Z,19.60
2018-04-28T17:04:22.915Z,19.60
2018-04-28T17:06:50.638Z,19.50
2018-04-28T17:09:18.398Z,19.50
2018-04-28T17:11:46.951Z,19.30
2018-04-28T17:14:14.697Z,19.30
2018-04-28T17:16:43.436Z,19.20
2018-04-28T17:19:11.162Z,19.20
2018-04-28T17:21:38.879Z,19.20
2018-04-28T17:24:07.385Z,19.10
2018-04-28T17:26:35.968Z,19.00
2018-04-28T17:29:03.778Z,18.90
2018-04-28T17:31:31.907Z,18.90
2018-04-28T17:33:59.678Z,18.80
2018-04-28T17:36:28.255Z,18.70
2018-04-28T17:38:55.966Z,18.70
2018-04-28T17:41:23.792Z,18.60
2018-04-28T17:43:51.554Z,18.50
2018-04-28T17:46:20.374Z,18.40
2018-04-28T17:48:49.002Z,18.30
2018-04-28T17:51:17.941Z,18.30
2018-04-28T17:53:45.692Z,18.20
2018-04-28T17:56:14.442Z,18.10
2018-04-28T17:58:43.074Z,18.00
2018-04-28T18:01:11.355Z,18.00
2018-04-28T18:03:39.341Z,17.90
2018-04-28T18:06:07.051Z,17.80
2018-04-28T18:08:34.783Z,17.70
2018-04-28T18:11:02.477Z,17.60
2018-04-28T18:13:31.025Z,17.50
2018-04-28T18:15:58.855Z,17.40
2018-04-28T18:18:28.947Z,17.30
2018-04-28T18:20:56.594Z,17.30
2018-04-28T18:23:24.274Z,17.20
2018-04-28T18:25:52.657Z,17.00
2018-04-28T18:28:21.162Z,17.00
2018-04-28T18:30:48.806Z,16.90
2018-04-28T18:33:17.221Z,16.70
2018-04-28T18:35:44.845Z,16.70
2018-04-28T18:38:12.538Z,16.60
2018-04-28T18:40:40.971Z,16.40
2018-04-28T18:43:08.606Z,16.40
2018-04-28T18:45:36.232Z,16.40
2018-04-28T18:48:04.302Z,16.30
2018-04-28T18:50:31.949Z,16.20
2018-04-28T18:53:00.385Z,16.10
2018-04-28T18:55:28.934Z,16.10
2018-04-28T19:01:03.424Z,15.90
2018-04-28T19:03:31.141Z,15.90
2018-04-28T19:06:00.095Z,15.70
2018-04-28T19:08:27.792Z,15.70
2018-04-28T19:10:55.555Z,15.70
2018-04-28T19:13:23.437Z,15.60
2018-04-28T19:15:51.098Z,15.50
2018-04-28T19:18:18.741Z,15.50
2018-04-28T19:20:46.410Z,15.40
2018-04-28T19:23:14.812Z,15.30
2018-04-28T19:25:42.463Z,15.30
2018-04-28T19:28:10.099Z,15.30
2018-04-28T19:30:38.485Z,15.10
2018-04-28T19:33:06.143Z,15.10
2018-04-28T19:35:33.775Z,15.10
2018-04-28T19:38:02.195Z,14.90
2018-04-28T19:40:29.835Z,14.90
2018-04-28T19:42:57.542Z,14.90
2018-04-28T19:45:25.136Z,14.80
2018-04-28T19:47:52.782Z,14.90
2018-04-28T19:50:20.517Z,14.80
2018-04-28T19:52:48.239Z,14.70
2018-04-28T19:55:16.349Z,14.70
2018-04-28T19:57:44.726Z,14.60
2018-04-28T20:00:12.425Z,14.60
2018-04-28T20:02:40.117Z,14.60
2018-04-28T20:05:07.898Z,14.60
2018-04-28T20:07:35.509Z,14.50
2018-04-28T20:10:03.945Z,14.50
2018-04-28T20:12:31.620Z,14.50
2018-04-28T20:15:00.041Z,14.40
2018-04-28T20:17:28.471Z,14.40
2018-04-28T20:23:07.970Z,14.30
2018-04-28T20:25:36.378Z,14.20
2018-04-28T20:28:04.769Z,14.20
2018-04-28T20:30:32.415Z,14.20
2018-04-28T20:33:00.044Z,14.20
2018-04-28T20:35:27.721Z,14.10
2018-04-28T20:37:55.381Z,14.10
2018-04-28T20:40:23.025Z,14.00
2018-04-28T20:42:51.464Z,14.00
2018-04-28T20:45:19.079Z,13.90
2018-04-28T20:47:46.725Z,13.90
2018-04-28T20:50:14.328Z,13.90
2018-04-28T20:52:42.010Z,13.80
2018-04-28T20:55:09.651Z,13.80
2018-04-28T20:57:37.361Z,13.70
2018-04-28T21:00:05.087Z,13.70
2018-04-28T21:02:33.434Z,13.70
2018-04-28T21:05:01.127Z,13.60
2018-04-28T21:07:28.778Z,13.60
2018-04-28T21:09:56.433Z,13.50
2018-04-28T21:12:24.085Z,13.50
2018-04-28T21:14:51.734Z,13.50
2018-04-28T21:17:19.390Z,13.40
2018-04-28T21:19:48.074Z,13.40
2018-04-28T21:22:15.750Z,13.40
2018-04-28T21:24:43.349Z,13.30
2018-04-28T21:27:11.025Z,13.30
2018-04-28T21:29:38.663Z,13.30
2018-04-28T21:32:07.065Z,13.20
2018-04-28T21:34:35.442Z,13.30
2018-04-28T21:37:03.090Z,13.20
2018-04-28T21:39:30.718Z,13.20
2018-04-28T21:41:58.349Z,13.20
2018-04-28T21:44:26.733Z,13.30
2018-04-28T21:46:54.369Z,13.30
2018-04-28T21:49:22.078Z,13.30
2018-04-28T21:51:49.695Z,13.20
2018-04-28T21:54:17.329Z,13.30
2018-04-28T21:56:44.933Z,13.30
2018-04-28T21:59:12.578Z,13.30
2018-04-28T22:01:40.987Z,13.30
2018-04-28T22:04:09.418Z,13.30
2018-04-28T22:06:37.074Z,13.20
2018-04-28T22:09:04.741Z,13.30
2018-04-28T22:11:32.346Z,13.20
2018-04-28T22:13:59.974Z,13.20
2018-04-28T22:16:27.638Z,13.20
2018-04-28T22:18:55.288Z,13.10
2018-04-28T22:21:22.942Z,13.10
2018-04-28T22:23:50.657Z,13.10
2018-04-28T22:26:19.054Z,13.00
2018-04-28T22:28:46.722Z,12.90
2018-04-28T22:31:15.422Z,12.80
2018-04-28T22:33:43.839Z,12.80
2018-04-28T22:36:12.269Z,12.80
2018-04-28T22:38:39.943Z,12.80
2018-04-28T22:41:07.575Z,12.80
2018-04-28T22:43:35.237Z,12.80
2018-04-28T22:46:02.921Z,12.70
2018-04-28T22:48:30.584Z,12.70
2018-04-28T22:50:58.218Z,12.70
2018-04-28T22:53:25.893Z,12.70
2018-04-28T22:55:53.518Z,12.70
2018-04-28T22:58:21.172Z,12.60
2018-04-28T23:00:48.849Z,12.60
2018-04-28T23:03:16.500Z,12.60
2018-04-28T23:05:44.164Z,12.50
2018-04-28T23:08:11.800Z,12.50
2018-04-28T23:10:39.470Z,12.50
2018-04-28T23:13:07.877Z,12.40
2018-04-28T23:15:35.557Z,12.40
2018-04-28T23:18:03.200Z,12.40
2018-04-28T23:20:30.991Z,12.40
2018-04-28T23:22:58.633Z,12.30
2018-04-28T23:25:27.039Z,12.20
2018-04-28T23:27:55.502Z,12.20
2018-04-28T23:30:23.293Z,12.20
2018-04-28T23:32:50.969Z,12.20
2018-04-28T23:35:18.604Z,12.10
2018-04-28T23:37:46.305Z,12.00
2018-04-28T23:40:14.847Z,12.10
2018-04-28T23:42:43.295Z,12.00
2018-04-28T23:45:10.942Z,12.00
2018-04-28T23:47:38.570Z,12.10
2018-04-28T23:50:06.215Z,12.10
2018-04-28T23:52:33.890Z,12.10
2018-04-28T23:55:01.581Z,12.20
2018-04-28T23:57:29.218Z,12.20
2018-04-28T23:59:56.850Z,12.20
